sensor_id;sensor_type;location;lat;lon;timestamp;temperature;humidity
13433;DHT22;6789;47.678;9.158;2022-12-18T00:02:46;-1.80;99.90
13433;DHT22;6789;47.678;9.158;2022-12-18T00:07:52;-1.80;99.90
13433;DHT22;6789;47.678;9.158;2022-12-18T00:12:59;-1.70;99.90
13433;DHT22;6789;47.678;9.158;2022-12-18T00:18:37;-1.60;99.90
13433;DHT22;6789;47.678;9.158;2022-12-18T00:23:44;-1.70;99.90
13433;DHT22;6789;47.678;9.158;2022-12-18T00:28:51;-1.60;99.90
13433;DHT22;6789;47.678;9.158;2022-12-18T00:34:01;-1.70;99.90
13433;DHT22;6789;47.678;9.158;2022-12-18T00:38:57;-1.50;99.90
13433;DHT22;6789;47.678;9.158;2022-12-18T00:44:04;-1.50;99.90
13433;DHT22;6789;47.678;9.158;2022-12-18T00:49:07;-1.40;99.90
13433;DHT22;6789;47.678;9.158;2022-12-18T00:54:13;-1.40;99.90
13433;DHT22;6789;47.678;9.158;2022-12-18T00:59:20;-1.40;99.90
13433;DHT22;6789;47.678;9.158;2022-12-18T01:04:32;-1.50;99.90
13433;DHT22;6789;47.678;9.158;2022-12-18T01:09:35;-1.40;99.90
13433;DHT22;6789;47.678;9.158;2022-12-18T01:14:41;-1.50;99.90
13433;DHT22;6789;47.678;9.158;2022-12-18T01:19:47;-1.40;99.90
13433;DHT22;6789;47.678;9.158;2022-12-18T01:24:54;-1.40;99.90
13433;DHT22;6789;47.678;9.158;2022-12-18T01:30:00;-1.40;99.90
13433;DHT22;6789;47.678;9.158;2022-12-18T01:35:04;-1.60;99.90
13433;DHT22;6789;47.678;9.158;2022-12-18T01:40:11;-1.60;99.90
13433;DHT22;6789;47.678;9.158;2022-12-18T01:45:26;-1.60;99.90
13433;DHT22;6789;47.678;9.158;2022-12-18T01:50:52;-1.60;99.90
13433;DHT22;6789;47.678;9.158;2022-12-18T01:56:00;-1.60;99.90
13433;DHT22;6789;47.678;9.158;2022-12-18T02:01:08;-1.50;99.90
13433;DHT22;6789;47.678;9.158;2022-12-18T02:06:26;-1.60;99.90
13433;DHT22;6789;47.678;9.158;2022-12-18T02:11:54;-1.50;99.90
13433;DHT22;6789;47.678;9.158;2022-12-18T02:28:17;-1.40;99.90
13433;DHT22;6789;47.678;9.158;2022-12-18T02:33:27;-1.30;99.90
13433;DHT22;6789;47.678;9.158;2022-12-18T02:38:40;-1.20;99.90
13433;DHT22;6789;47.678;9.158;2022-12-18T02:43:49;-1.10;99.90
13433;DHT22;6789;47.678;9.158;2022-12-18T03:06:32;-1.00;99.90
13433;DHT22;6789;47.678;9.158;2022-12-18T03:11:34;-1.00;99.90
13433;DHT22;6789;47.678;9.158;2022-12-18T03:17:09;-1.20;99.90
13433;DHT22;6789;47.678;9.158;2022-12-18T03:22:06;-1.20;99.90
13433;DHT22;6789;47.678;9.158;2022-12-18T03:27:04;-1.10;99.90
13433;DHT22;6789;47.678;9.158;2022-12-18T03:32:05;-1.00;99.90
13433;DHT22;6789;47.678;9.158;2022-12-18T03:37:15;-1.00;99.90
13433;DHT22;6789;47.678;9.158;2022-12-18T03:42:08;-1.00;99.90
13433;DHT22;6789;47.678;9.158;2022-12-18T03:47:29;-1.00;99.90
13433;DHT22;6789;47.678;9.158;2022-12-18T03:53:18;-1.00;99.90
13433;DHT22;6789;47.678;9.158;2022-12-18T03:58:19;-1.00;99.90
13433;DHT22;6789;47.678;9.158;2022-12-18T04:03:15;-0.90;99.90
13433;DHT22;6789;47.678;9.158;2022-12-18T04:08:16;-0.90;99.90
13433;DHT22;6789;47.678;9.158;2022-12-18T04:13:09;-1.00;99.90
13433;DHT22;6789;47.678;9.158;2022-12-18T04:18:02;-1.00;99.90
13433;DHT22;6789;47.678;9.158;2022-12-18T04:22:55;-1.00;99.90
13433;DHT22;6789;47.678;9.158;2022-12-18T04:27:46;-1.00;99.90
13433;DHT22;6789;47.678;9.158;2022-12-18T04:32:38;-1.00;99.90
13433;DHT22;6789;47.678;9.158;2022-12-18T04:37:30;-1.00;99.90
13433;DHT22;6789;47.678;9.158;2022-12-18T04:42:21;-1.00;99.90
13433;DHT22;6789;47.678;9.158;2022-12-18T04:47:13;-1.10;99.90
13433;DHT22;6789;47.678;9.158;2022-12-18T04:52:08;-1.10;99.90
13433;DHT22;6789;47.678;9.158;2022-12-18T04:56:59;-1.00;99.90
13433;DHT22;6789;47.678;9.158;2022-12-18T05:01:51;-1.00;99.90
13433;DHT22;6789;47.678;9.158;2022-12-18T05:06:45;-0.90;99.90
13433;DHT22;6789;47.678;9.158;2022-12-18T05:11:39;-0.90;99.90
13433;DHT22;6789;47.678;9.158;2022-12-18T05:16:33;-0.90;99.90
13433;DHT22;6789;47.678;9.158;2022-12-18T05:21:27;-0.90;99.90
13433;DHT22;6789;47.678;9.158;2022-12-18T05:26:33;-0.80;99.90
13433;DHT22;6789;47.678;9.158;2022-12-18T05:31:25;-0.80;99.90
13433;DHT22;6789;47.678;9.158;2022-12-18T05:36:31;-0.70;99.90
13433;DHT22;6789;47.678;9.158;2022-12-18T05:41:37;-0.70;99.90
13433;DHT22;6789;47.678;9.158;2022-12-18T05:46:37;-0.70;99.90
13433;DHT22;6789;47.678;9.158;2022-12-18T05:51:33;-0.80;99.90
13433;DHT22;6789;47.678;9.158;2022-12-18T05:56:27;-0.80;99.90
13433;DHT22;6789;47.678;9.158;2022-12-18T06:01:24;-0.70;99.90
13433;DHT22;6789;47.678;9.158;2022-12-18T06:06:24;-0.70;99.90
13433;DHT22;6789;47.678;9.158;2022-12-18T06:11:26;-0.80;99.90
13433;DHT22;6789;47.678;9.158;2022-12-18T06:16:20;-0.80;99.90
13433;DHT22;6789;47.678;9.158;2022-12-18T06:21:27;-0.70;99.90
13433;DHT22;6789;47.678;9.158;2022-12-18T06:26:37;-0.70;99.90
13433;DHT22;6789;47.678;9.158;2022-12-18T06:31:44;-0.70;99.90
13433;DHT22;6789;47.678;9.158;2022-12-18T06:36:37;-0.60;99.90
13433;DHT22;6789;47.678;9.158;2022-12-18T06:41:43;-0.80;99.90
13433;DHT22;6789;47.678;9.158;2022-12-18T06:46:36;-0.80;99.90
13433;DHT22;6789;47.678;9.158;2022-12-18T06:51:30;-0.70;99.90
13433;DHT22;6789;47.678;9.158;2022-12-18T06:56:36;-0.60;99.90
13433;DHT22;6789;47.678;9.158;2022-12-18T07:01:28;-0.60;99.90
13433;DHT22;6789;47.678;9.158;2022-12-18T07:06:23;-0.60;99.90
13433;DHT22;6789;47.678;9.158;2022-12-18T07:11:17;-0.60;99.90
13433;DHT22;6789;47.678;9.158;2022-12-18T07:16:16;-0.50;99.90
13433;DHT22;6789;47.678;9.158;2022-12-18T07:21:18;-0.60;99.90
13433;DHT22;6789;47.678;9.158;2022-12-18T07:26:14;-0.70;99.90
13433;DHT22;6789;47.678;9.158;2022-12-18T07:31:21;-0.70;99.90
13433;DHT22;6789;47.678;9.158;2022-12-18T07:36:14;-0.70;99.90
13433;DHT22;6789;47.678;9.158;2022-12-18T07:41:12;-0.60;99.90
13433;DHT22;6789;47.678;9.158;2022-12-18T07:46:19;-0.70;99.90
13433;DHT22;6789;47.678;9.158;2022-12-18T07:51:12;-0.60;99.90
13433;DHT22;6789;47.678;9.158;2022-12-18T07:56:19;-0.70;99.90
13433;DHT22;6789;47.678;9.158;2022-12-18T08:01:22;-0.70;99.90
13433;DHT22;6789;47.678;9.158;2022-12-18T08:06:14;-0.60;99.90
13433;DHT22;6789;47.678;9.158;2022-12-18T08:11:08;-0.60;99.90
13433;DHT22;6789;47.678;9.158;2022-12-18T08:16:04;-0.50;99.90
13433;DHT22;6789;47.678;9.158;2022-12-18T08:21:17;-0.50;99.90
13433;DHT22;6789;47.678;9.158;2022-12-18T08:26:12;-0.40;99.90
13433;DHT22;6789;47.678;9.158;2022-12-18T08:31:05;-0.40;99.90
13433;DHT22;6789;47.678;9.158;2022-12-18T08:35:59;-0.30;99.90
13433;DHT22;6789;47.678;9.158;2022-12-18T08:41:08;-0.30;99.90
13433;DHT22;6789;47.678;9.158;2022-12-18T08:46:02;-0.30;99.90
13433;DHT22;6789;47.678;9.158;2022-12-18T08:50:59;-0.10;99.90
13433;DHT22;6789;47.678;9.158;2022-12-18T08:55:56;-0.20;99.90
13433;DHT22;6789;47.678;9.158;2022-12-18T09:00:49;-0.10;99.90
13433;DHT22;6789;47.678;9.158;2022-12-18T09:05:41;0.00;99.90
13433;DHT22;6789;47.678;9.158;2022-12-18T09:10:34;0.10;99.90
13433;DHT22;6789;47.678;9.158;2022-12-18T09:15:34;0.10;99.90
13433;DHT22;6789;47.678;9.158;2022-12-18T09:20:26;0.10;99.90
13433;DHT22;6789;47.678;9.158;2022-12-18T09:25:20;0.10;99.90
13433;DHT22;6789;47.678;9.158;2022-12-18T09:30:26;0.00;99.90
13433;DHT22;6789;47.678;9.158;2022-12-18T09:35:25;0.10;99.90
13433;DHT22;6789;47.678;9.158;2022-12-18T09:40:26;0.20;99.90
13433;DHT22;6789;47.678;9.158;2022-12-18T09:45:24;0.30;99.90
13433;DHT22;6789;47.678;9.158;2022-12-18T09:50:34;0.40;99.90
13433;DHT22;6789;47.678;9.158;2022-12-18T09:55:38;0.40;99.90
13433;DHT22;6789;47.678;9.158;2022-12-18T10:00:36;0.60;99.90
13433;DHT22;6789;47.678;9.158;2022-12-18T10:16:50;0.60;99.90
13433;DHT22;6789;47.678;9.158;2022-12-18T10:21:55;0.70;99.90
13433;DHT22;6789;47.678;9.158;2022-12-18T10:26:58;0.60;99.90
13433;DHT22;6789;47.678;9.158;2022-12-18T10:32:07;0.50;99.90
13433;DHT22;6789;47.678;9.158;2022-12-18T10:37:16;0.60;99.90
13433;DHT22;6789;47.678;9.158;2022-12-18T10:42:19;0.70;99.90
13433;DHT22;6789;47.678;9.158;2022-12-18T10:47:15;0.90;99.90
13433;DHT22;6789;47.678;9.158;2022-12-18T10:52:27;0.90;99.90
13433;DHT22;6789;47.678;9.158;2022-12-18T10:57:39;0.80;99.90
13433;DHT22;6789;47.678;9.158;2022-12-18T11:02:46;0.80;99.90
13433;DHT22;6789;47.678;9.158;2022-12-18T11:07:53;0.90;99.90
13433;DHT22;6789;47.678;9.158;2022-12-18T11:12:55;1.00;99.90
13433;DHT22;6789;47.678;9.158;2022-12-18T11:18:18;0.90;99.90
13433;DHT22;6789;47.678;9.158;2022-12-18T11:23:13;0.80;99.90
13433;DHT22;6789;47.678;9.158;2022-12-18T11:28:38;0.80;99.90
13433;DHT22;6789;47.678;9.158;2022-12-18T11:34:04;0.90;99.90
13433;DHT22;6789;47.678;9.158;2022-12-18T11:39:27;0.90;99.90
13433;DHT22;6789;47.678;9.158;2022-12-18T11:50:58;1.00;99.90
13433;DHT22;6789;47.678;9.158;2022-12-18T11:56:25;1.00;99.90
13433;DHT22;6789;47.678;9.158;2022-12-18T12:18:11;1.00;99.90
13433;DHT22;6789;47.678;9.158;2022-12-18T12:34:55;1.00;99.90
13433;DHT22;6789;47.678;9.158;2022-12-18T12:40:04;1.00;99.90
13433;DHT22;6789;47.678;9.158;2022-12-18T12:45:32;0.90;99.90
13433;DHT22;6789;47.678;9.158;2022-12-18T12:50:34;0.90;99.90
13433;DHT22;6789;47.678;9.158;2022-12-18T12:55:29;1.10;99.90
13433;DHT22;6789;47.678;9.158;2022-12-18T13:01:00;1.10;99.90
13433;DHT22;6789;47.678;9.158;2022-12-18T13:06:45;1.10;99.90
13433;DHT22;6789;47.678;9.158;2022-12-18T13:11:46;0.90;99.90
13433;DHT22;6789;47.678;9.158;2022-12-18T13:17:29;0.90;99.90
13433;DHT22;6789;47.678;9.158;2022-12-18T13:22:28;0.90;99.90
13433;DHT22;6789;47.678;9.158;2022-12-18T13:38:36;1.00;99.90
13433;DHT22;6789;47.678;9.158;2022-12-18T13:48:57;1.00;99.90
13433;DHT22;6789;47.678;9.158;2022-12-18T13:53:56;0.90;99.90
13433;DHT22;6789;47.678;9.158;2022-12-18T13:59:11;0.90;99.90
13433;DHT22;6789;47.678;9.158;2022-12-18T14:04:19;1.00;99.90
13433;DHT22;6789;47.678;9.158;2022-12-18T14:09:31;0.80;99.90
13433;DHT22;6789;47.678;9.158;2022-12-18T14:14:45;0.70;99.90
13433;DHT22;6789;47.678;9.158;2022-12-18T14:19:48;0.70;99.90
13433;DHT22;6789;47.678;9.158;2022-12-18T14:24:47;0.80;99.90
13433;DHT22;6789;47.678;9.158;2022-12-18T14:29:56;0.80;99.90
13433;DHT22;6789;47.678;9.158;2022-12-18T14:34:52;0.70;99.90
13433;DHT22;6789;47.678;9.158;2022-12-18T14:39:57;0.70;99.90
13433;DHT22;6789;47.678;9.158;2022-12-18T14:50:39;0.50;99.90
13433;DHT22;6789;47.678;9.158;2022-12-18T14:55:33;0.60;99.90
13433;DHT22;6789;47.678;9.158;2022-12-18T15:00:28;0.40;99.90
13433;DHT22;6789;47.678;9.158;2022-12-18T15:05:35;0.40;99.90
13433;DHT22;6789;47.678;9.158;2022-12-18T15:10:47;0.40;99.90
13433;DHT22;6789;47.678;9.158;2022-12-18T15:20:57;0.30;99.90
13433;DHT22;6789;47.678;9.158;2022-12-18T15:26:01;0.20;99.90
13433;DHT22;6789;47.678;9.158;2022-12-18T15:36:17;0.30;99.90
13433;DHT22;6789;47.678;9.158;2022-12-18T15:41:24;0.30;99.90
13433;DHT22;6789;47.678;9.158;2022-12-18T15:46:20;0.20;99.90
13433;DHT22;6789;47.678;9.158;2022-12-18T15:51:37;0.20;99.90
13433;DHT22;6789;47.678;9.158;2022-12-18T15:56:44;0.00;99.90
13433;DHT22;6789;47.678;9.158;2022-12-18T16:02:16;0.00;99.90
13433;DHT22;6789;47.678;9.158;2022-12-18T16:07:23;0.00;99.90
13433;DHT22;6789;47.678;9.158;2022-12-18T16:12:31;0.00;99.90
13433;DHT22;6789;47.678;9.158;2022-12-18T16:17:41;0.10;99.90
13433;DHT22;6789;47.678;9.158;2022-12-18T16:22:49;0.10;99.90
13433;DHT22;6789;47.678;9.158;2022-12-18T16:27:42;0.00;99.90
13433;DHT22;6789;47.678;9.158;2022-12-18T16:32:49;0.00;99.90
13433;DHT22;6789;47.678;9.158;2022-12-18T16:37:48;0.10;99.90
13433;DHT22;6789;47.678;9.158;2022-12-18T16:42:43;0.10;99.90
13433;DHT22;6789;47.678;9.158;2022-12-18T16:47:50;0.00;99.90
13433;DHT22;6789;47.678;9.158;2022-12-18T16:52:55;0.10;99.90
13433;DHT22;6789;47.678;9.158;2022-12-18T16:57:55;0.00;99.90
13433;DHT22;6789;47.678;9.158;2022-12-18T17:02:54;0.00;99.90
13433;DHT22;6789;47.678;9.158;2022-12-18T17:08:00;0.00;99.90
13433;DHT22;6789;47.678;9.158;2022-12-18T17:13:06;0.00;99.90
13433;DHT22;6789;47.678;9.158;2022-12-18T17:18:11;0.00;99.90
13433;DHT22;6789;47.678;9.158;2022-12-18T17:23:17;0.00;99.90
13433;DHT22;6789;47.678;9.158;2022-12-18T17:28:24;-0.10;99.90
13433;DHT22;6789;47.678;9.158;2022-12-18T17:33:34;0.00;99.90
13433;DHT22;6789;47.678;9.158;2022-12-18T17:38:27;0.00;99.90
13433;DHT22;6789;47.678;9.158;2022-12-18T17:43:21;0.00;99.90
13433;DHT22;6789;47.678;9.158;2022-12-18T17:48:26;0.10;99.90
13433;DHT22;6789;47.678;9.158;2022-12-18T17:53:18;0.10;99.90
13433;DHT22;6789;47.678;9.158;2022-12-18T17:58:24;0.10;99.90
13433;DHT22;6789;47.678;9.158;2022-12-18T18:03:31;0.00;99.90
13433;DHT22;6789;47.678;9.158;2022-12-18T18:08:27;0.10;99.90
13433;DHT22;6789;47.678;9.158;2022-12-18T18:13:33;0.20;99.90
13433;DHT22;6789;47.678;9.158;2022-12-18T18:19:01;0.20;99.90
13433;DHT22;6789;47.678;9.158;2022-12-18T18:24:11;0.30;99.90
13433;DHT22;6789;47.678;9.158;2022-12-18T18:29:22;0.30;99.90
13433;DHT22;6789;47.678;9.158;2022-12-18T18:34:31;0.40;99.90
13433;DHT22;6789;47.678;9.158;2022-12-18T18:39:31;0.40;99.90
13433;DHT22;6789;47.678;9.158;2022-12-18T18:44:26;0.30;99.90
13433;DHT22;6789;47.678;9.158;2022-12-18T18:49:26;0.40;99.90
13433;DHT22;6789;47.678;9.158;2022-12-18T18:54:32;0.40;99.90
13433;DHT22;6789;47.678;9.158;2022-12-18T18:59:52;0.30;99.90
13433;DHT22;6789;47.678;9.158;2022-12-18T19:04:45;0.30;99.90
13433;DHT22;6789;47.678;9.158;2022-12-18T19:09:52;0.20;99.90
13433;DHT22;6789;47.678;9.158;2022-12-18T19:14:47;0.30;99.90
13433;DHT22;6789;47.678;9.158;2022-12-18T19:19:45;0.40;99.90
13433;DHT22;6789;47.678;9.158;2022-12-18T19:24:51;0.40;99.90
13433;DHT22;6789;47.678;9.158;2022-12-18T19:29:56;0.40;99.90
13433;DHT22;6789;47.678;9.158;2022-12-18T19:34:52;0.40;99.90
13433;DHT22;6789;47.678;9.158;2022-12-18T19:39:58;0.40;99.90
13433;DHT22;6789;47.678;9.158;2022-12-18T19:44:56;0.50;99.90
13433;DHT22;6789;47.678;9.158;2022-12-18T19:50:02;0.40;99.90
13433;DHT22;6789;47.678;9.158;2022-12-18T19:55:05;0.40;99.90
13433;DHT22;6789;47.678;9.158;2022-12-18T20:00:01;0.40;99.90
13433;DHT22;6789;47.678;9.158;2022-12-18T20:05:10;0.50;99.90
13433;DHT22;6789;47.678;9.158;2022-12-18T20:10:18;0.40;99.90
13433;DHT22;6789;47.678;9.158;2022-12-18T20:15:26;0.40;99.90
13433;DHT22;6789;47.678;9.158;2022-12-18T20:20:23;0.50;99.90
13433;DHT22;6789;47.678;9.158;2022-12-18T20:25:16;0.50;99.90
13433;DHT22;6789;47.678;9.158;2022-12-18T20:30:24;0.50;99.90
13433;DHT22;6789;47.678;9.158;2022-12-18T20:35:31;0.60;99.90
13433;DHT22;6789;47.678;9.158;2022-12-18T20:40:26;0.60;99.90
13433;DHT22;6789;47.678;9.158;2022-12-18T20:45:32;0.60;99.90
13433;DHT22;6789;47.678;9.158;2022-12-18T20:50:38;0.70;99.90
13433;DHT22;6789;47.678;9.158;2022-12-18T20:55:34;0.70;99.90
13433;DHT22;6789;47.678;9.158;2022-12-18T21:00:28;0.70;99.90
13433;DHT22;6789;47.678;9.158;2022-12-18T21:05:33;0.70;99.90
13433;DHT22;6789;47.678;9.158;2022-12-18T21:10:39;0.60;99.90
13433;DHT22;6789;47.678;9.158;2022-12-18T21:15:46;0.60;99.90
13433;DHT22;6789;47.678;9.158;2022-12-18T21:20:47;0.60;99.90
13433;DHT22;6789;47.678;9.158;2022-12-18T21:25:53;0.70;99.90
13433;DHT22;6789;47.678;9.158;2022-12-18T21:30:46;0.60;99.90
13433;DHT22;6789;47.678;9.158;2022-12-18T21:35:52;0.60;99.90
13433;DHT22;6789;47.678;9.158;2022-12-18T21:40:44;0.60;99.90
13433;DHT22;6789;47.678;9.158;2022-12-18T21:45:36;0.60;99.90
13433;DHT22;6789;47.678;9.158;2022-12-18T21:50:29;0.60;99.90
13433;DHT22;6789;47.678;9.158;2022-12-18T21:55:21;0.60;99.90
13433;DHT22;6789;47.678;9.158;2022-12-18T22:00:27;0.70;99.90
13433;DHT22;6789;47.678;9.158;2022-12-18T22:05:21;0.80;99.90
13433;DHT22;6789;47.678;9.158;2022-12-18T22:10:14;0.80;99.90
13433;DHT22;6789;47.678;9.158;2022-12-18T22:15:14;0.80;99.90
13433;DHT22;6789;47.678;9.158;2022-12-18T22:20:12;0.80;99.90
13433;DHT22;6789;47.678;9.158;2022-12-18T22:25:04;0.60;99.90
13433;DHT22;6789;47.678;9.158;2022-12-18T22:30:11;0.70;99.90
13433;DHT22;6789;47.678;9.158;2022-12-18T22:35:18;0.70;99.90
13433;DHT22;6789;47.678;9.158;2022-12-18T22:40:18;0.70;99.90
13433;DHT22;6789;47.678;9.158;2022-12-18T22:45:16;0.70;99.90
13433;DHT22;6789;47.678;9.158;2022-12-18T22:50:22;0.70;99.90
13433;DHT22;6789;47.678;9.158;2022-12-18T22:55:14;0.80;99.90
13433;DHT22;6789;47.678;9.158;2022-12-18T23:00:07;0.80;99.90
13433;DHT22;6789;47.678;9.158;2022-12-18T23:05:00;0.80;99.90
13433;DHT22;6789;47.678;9.158;2022-12-18T23:10:07;0.90;99.90
13433;DHT22;6789;47.678;9.158;2022-12-18T23:15:13;0.90;99.90
13433;DHT22;6789;47.678;9.158;2022-12-18T23:20:20;0.90;99.90
13433;DHT22;6789;47.678;9.158;2022-12-18T23:25:27;1.00;99.90
13433;DHT22;6789;47.678;9.158;2022-12-18T23:30:19;1.00;99.90
13433;DHT22;6789;47.678;9.158;2022-12-18T23:35:12;0.90;99.90
13433;DHT22;6789;47.678;9.158;2022-12-18T23:40:18;0.80;99.90
13433;DHT22;6789;47.678;9.158;2022-12-18T23:45:20;0.80;99.90
13433;DHT22;6789;47.678;9.158;2022-12-18T23:50:12;0.80;99.90
13433;DHT22;6789;47.678;9.158;2022-12-18T23:55:05;0.70;99.90
